Time;durP1;ratioP1;P1;durP2;ratioP2;P2;SDS_P1;SDS_P2;PMS_P1;PMS_P2;Temp;Humidity;BMP_temperature;BMP_pressure;BME280_temperature;BME280_humidity;BME280_pressure;Samples;Min_cycle;Max_cycle;Signal;HPM_P1;HPM_P2
2022/05/13 00:01:09;;;;;;;7.07;2.10;;;14.70;99.90;;;;;;5033413;28;20053;-70
2022/05/13 00:03:36;;;;;;;12.13;2.55;;;14.70;99.90;;;;;;5016410;28;20049;-70
2022/05/13 00:06:02;;;;;;;8.57;2.00;;;14.70;99.90;;;;;;5033365;28;20049;-70
2022/05/13 00:08:27;;;;;;;5.95;2.10;;;14.60;99.90;;;;;;5033024;28;20492;-71
2022/05/13 00:10:54;;;;;;;7.60;2.28;;;14.70;99.90;;;;;;5033582;28;20091;-70
2022/05/13 00:13:20;;;;;;;6.22;2.17;;;14.60;99.90;;;;;;5033309;28;20492;-71
2022/05/13 00:15:46;;;;;;;7.50;2.03;;;14.50;99.90;;;;;;5015499;28;20088;-71
2022/05/13 00:18:12;;;;;;;6.88;1.90;;;14.50;99.90;;;;;;5033188;28;20057;-70
2022/05/13 00:20:38;;;;;;;7.50;2.15;;;14.60;99.90;;;;;;4999512;28;20042;-70
2022/05/13 00:23:04;;;;;;;9.00;2.22;;;14.50;99.90;;;;;;5036314;28;20109;-71
2022/05/13 00:25:33;;;;;;;6.72;1.83;;;14.50;99.90;;;;;;5019647;28;20093;-71
2022/05/13 00:28:00;;;;;;;7.65;2.40;;;14.50;99.90;;;;;;5036421;28;20438;-71
2022/05/13 00:30:28;;;;;;;7.57;2.00;;;14.50;99.90;;;;;;5036970;28;20052;-70
2022/05/13 00:32:54;;;;;;;12.23;2.45;;;14.40;99.90;;;;;;5036832;28;20543;-70
2022/05/13 00:35:22;;;;;;;13.73;2.13;;;14.50;99.90;;;;;;5036839;28;20061;-70
2022/05/13 00:37:48;;;;;;;10.48;2.58;;;14.60;99.90;;;;;;5019361;28;20046;-70
2022/05/13 00:40:15;;;;;;;14.90;2.25;;;14.50;99.90;;;;;;5036649;28;20048;-71
2022/05/13 00:42:41;;;;;;;7.78;2.17;;;14.50;99.90;;;;;;5036958;28;20057;-71
2022/05/13 00:45:08;;;;;;;9.70;1.98;;;14.60;99.90;;;;;;5036712;28;20057;-70
2022/05/13 00:47:33;;;;;;;8.15;2.22;;;14.60;99.90;;;;;;5036668;28;20049;-71
2022/05/13 00:50:01;;;;;;;8.80;2.38;;;14.70;99.90;;;;;;5019248;28;20392;-71
2022/05/13 00:52:27;;;;;;;10.32;2.00;;;14.60;99.90;;;;;;5019062;28;20049;-71
2022/05/13 00:54:54;;;;;;;7.75;2.30;;;14.70;99.90;;;;;;5036467;28;20133;-70
2022/05/13 00:57:21;;;;;;;7.50;2.38;;;14.60;99.90;;;;;;5018942;28;20041;-70
2022/05/13 00:59:49;;;;;;;9.73;2.40;;;14.50;99.90;;;;;;5036366;28;20424;-70
2022/05/13 01:02:15;;;;;;;8.63;1.98;;;14.40;99.90;;;;;;5019037;28;20127;-70
2022/05/13 01:04:42;;;;;;;8.93;2.03;;;14.30;99.90;;;;;;5036373;28;20107;-70
2022/05/13 01:07:19;;;;;;;6.65;2.42;;;14.50;99.90;;;;;;5036239;28;20045;-70
2022/05/13 01:09:49;;;;;;;9.43;2.40;;;14.60;99.90;;;;;;5036452;28;20396;-70
2022/05/13 01:12:20;;;;;;;8.95;1.95;;;14.70;99.90;;;;;;5036203;28;20045;-71
2022/05/13 01:14:58;;;;;;;6.88;2.15;;;14.70;99.90;;;;;;5036259;28;20088;-70
2022/05/13 01:20:14;;;;;;;7.57;2.65;;;14.70;99.90;;;;;;5018881;28;20059;-71
2022/05/13 01:22:43;;;;;;;10.30;2.40;;;14.70;99.90;;;;;;5036030;28;20177;-71
2022/05/13 01:25:12;;;;;;;9.60;2.20;;;14.70;99.90;;;;;;5036113;28;20053;-71
2022/05/13 01:27:41;;;;;;;9.75;2.53;;;14.70;99.90;;;;;;5035295;28;20573;-71
2022/05/13 01:30:07;;;;;;;8.60;2.13;;;14.70;99.90;;;;;;5035844;28;20037;-71
2022/05/13 01:32:33;;;;;;;13.13;2.85;;;14.70;99.90;;;;;;5035399;28;20480;-71
2022/05/13 01:34:58;;;;;;;8.73;2.55;;;14.80;99.90;;;;;;5018342;28;20045;-70
2022/05/13 01:37:24;;;;;;;8.05;2.50;;;14.80;99.90;;;;;;5034609;28;20049;-71
2022/05/13 01:39:50;;;;;;;11.73;2.50;;;14.90;99.90;;;;;;5017939;28;20132;-71
2022/05/13 01:42:16;;;;;;;10.82;2.53;;;14.70;99.90;;;;;;5035677;28;20132;-73
2022/05/13 01:44:41;;;;;;;9.63;2.28;;;14.70;99.90;;;;;;5035592;28;20077;-71
2022/05/13 01:47:07;;;;;;;7.35;2.35;;;14.70;99.90;;;;;;5035562;28;20046;-70
2022/05/13 01:49:32;;;;;;;9.60;2.65;;;14.80;99.90;;;;;;5036002;28;20037;-70
2022/05/13 01:51:58;;;;;;;8.80;2.47;;;14.70;99.90;;;;;;5035418;28;20487;-70
2022/05/13 01:54:24;;;;;;;12.27;2.80;;;14.70;99.90;;;;;;5018077;28;20088;-71
2022/05/13 01:56:50;;;;;;;11.60;2.70;;;14.70;99.90;;;;;;5035442;28;20436;-71
2022/05/13 01:59:15;;;;;;;12.52;3.00;;;14.60;99.90;;;;;;5034951;28;20068;-71
2022/05/13 02:01:41;;;;;;;8.77;2.28;;;14.60;99.90;;;;;;5017838;28;20396;-71
2022/05/13 02:04:07;;;;;;;11.02;2.55;;;14.50;99.90;;;;;;5035223;28;20050;-71
2022/05/13 02:06:32;;;;;;;9.95;3.05;;;14.60;99.90;;;;;;5017886;28;20045;-71
2022/05/13 02:08:58;;;;;;;8.45;2.40;;;14.70;99.90;;;;;;5035347;28;20057;-71
2022/05/13 02:11:26;;;;;;;7.63;2.63;;;14.80;99.90;;;;;;5017596;28;20481;-71
2022/05/13 02:13:53;;;;;;;10.68;2.58;;;14.80;99.90;;;;;;5035270;28;20107;-71
2022/05/13 02:16:19;;;;;;;10.27;2.83;;;14.70;99.90;;;;;;5017654;28;20084;-71
2022/05/13 02:18:45;;;;;;;11.35;2.85;;;14.70;99.90;;;;;;5034876;28;20104;-71
2022/05/13 02:21:12;;;;;;;9.30;2.80;;;14.70;99.90;;;;;;5034932;28;20491;-71
2022/05/13 02:23:39;;;;;;;10.77;2.50;;;14.70;99.90;;;;;;5034921;28;20127;-71
2022/05/13 02:26:08;;;;;;;8.90;2.50;;;14.70;99.90;;;;;;5034816;28;20050;-70
2022/05/13 02:28:34;;;;;;;11.20;3.10;;;14.70;99.90;;;;;;5034385;28;20124;-71
2022/05/13 02:31:00;;;;;;;11.70;3.15;;;14.70;99.90;;;;;;5034717;28;20049;-70
2022/05/13 02:33:27;;;;;;;10.75;2.78;;;14.50;99.90;;;;;;5034742;28;20100;-71
2022/05/13 02:35:53;;;;;;;11.27;3.40;;;14.30;99.90;;;;;;5034591;28;20049;-70
2022/05/13 02:38:18;;;;;;;10.23;3.17;;;14.20;99.90;;;;;;5034505;28;20495;-71
2022/05/13 02:43:30;;;;;;;10.25;3.28;;;14.20;99.90;;;;;;5034658;28;20064;-71
2022/05/13 02:45:57;;;;;;;10.20;2.70;;;14.30;99.90;;;;;;5033975;28;20055;-71
2022/05/13 02:48:23;;;;;;;10.32;3.05;;;14.30;99.90;;;;;;5034288;28;20053;-71
2022/05/13 02:50:49;;;;;;;11.10;3.40;;;14.30;99.90;;;;;;5034366;28;20042;-71
2022/05/13 02:53:14;;;;;;;11.20;3.30;;;14.40;99.90;;;;;;5017005;28;20473;-71
2022/05/13 02:55:40;;;;;;;9.93;3.17;;;14.40;99.90;;;;;;5033956;28;20513;-71
2022/05/13 02:58:06;;;;;;;14.32;3.00;;;14.50;99.90;;;;;;5016364;28;20049;-70
2022/05/13 03:00:33;;;;;;;13.65;3.08;;;14.50;99.90;;;;;;5034092;28;20041;-71
2022/05/13 03:02:59;;;;;;;13.48;3.05;;;14.40;99.90;;;;;;5034183;28;20041;-71
2022/05/13 03:05:25;;;;;;;14.55;2.80;;;14.40;99.90;;;;;;5034063;28;20057;-71
2022/05/13 03:07:51;;;;;;;12.73;3.20;;;14.30;99.90;;;;;;5033999;28;20045;-71
2022/05/13 03:10:17;;;;;;;15.60;3.28;;;14.30;99.90;;;;;;5034149;28;20063;-70
2022/05/13 03:12:43;;;;;;;8.23;2.92;;;14.40;99.90;;;;;;5033986;28;20045;-71
2022/05/13 03:15:10;;;;;;;10.93;2.97;;;14.30;99.90;;;;;;5016523;28;20099;-71
2022/05/13 03:17:36;;;;;;;18.10;3.40;;;14.40;99.90;;;;;;5033880;28;20052;-70
2022/05/13 03:20:07;;;;;;;14.98;3.67;;;14.10;99.90;;;;;;5033841;28;20041;-70
2022/05/13 03:22:32;;;;;;;13.43;3.35;;;14.00;99.90;;;;;;5033847;28;20533;-71
2022/05/13 03:24:59;;;;;;;16.02;3.35;;;14.00;99.90;;;;;;5016198;28;20054;-71
2022/05/13 03:27:26;;;;;;;14.52;3.58;;;14.00;99.90;;;;;;5033577;28;20411;-71
2022/05/13 03:29:51;;;;;;;18.80;3.50;;;14.10;99.90;;;;;;5033724;28;20042;-70
2022/05/13 03:32:17;;;;;;;9.75;3.00;;;14.10;99.90;;;;;;5033449;28;20065;-71
2022/05/13 03:34:43;;;;;;;18.15;3.72;;;14.10;99.90;;;;;;5033779;28;20049;-71
2022/05/13 03:37:08;;;;;;;16.60;3.10;;;13.90;99.90;;;;;;5033770;28;20412;-71
2022/05/13 03:39:34;;;;;;;13.77;3.15;;;13.90;99.90;;;;;;5016692;28;20472;-71
2022/05/13 03:42:00;;;;;;;12.23;3.35;;;14.00;99.90;;;;;;5033603;28;20084;-71
2022/05/13 03:44:25;;;;;;;15.43;3.13;;;14.10;99.90;;;;;;5016264;28;20103;-71
2022/05/13 03:46:51;;;;;;;12.73;3.58;;;14.10;99.90;;;;;;5033579;28;20049;-71
2022/05/13 03:49:17;;;;;;;16.75;3.83;;;14.10;99.90;;;;;;5033980;28;20042;-71
2022/05/13 03:51:42;;;;;;;14.90;3.70;;;14.10;99.90;;;;;;5016184;28;20136;-71
2022/05/13 03:54:08;;;;;;;16.33;3.40;;;14.00;99.90;;;;;;5033498;28;20061;-70
2022/05/13 03:56:34;;;;;;;12.02;3.05;;;14.10;99.90;;;;;;5034559;28;20056;-70
2022/05/13 03:59:00;;;;;;;13.50;3.63;;;14.10;99.90;;;;;;5037237;28;20132;-70
2022/05/13 04:01:25;;;;;;;17.30;4.38;;;14.20;99.90;;;;;;5037738;28;20518;-70
2022/05/13 04:03:51;;;;;;;15.98;4.13;;;14.30;99.90;;;;;;5037441;28;20089;-70
2022/05/13 04:09:03;;;;;;;14.38;3.88;;;14.40;99.90;;;;;;5037085;28;20459;-71
2022/05/13 04:11:38;;;;;;;16.35;4.18;;;14.40;99.90;;;;;;5037329;28;20087;-71
2022/05/13 04:16:52;;;;;;;13.50;3.53;;;14.60;99.90;;;;;;5037278;28;20063;-71
2022/05/13 04:19:19;;;;;;;11.40;3.05;;;14.60;99.90;;;;;;5020114;28;20045;-71
2022/05/13 04:21:46;;;;;;;11.88;3.53;;;14.70;99.90;;;;;;5037628;28;20045;-71
2022/05/13 04:24:15;;;;;;;13.20;3.67;;;14.80;99.90;;;;;;5036816;28;20568;-71
2022/05/13 04:26:41;;;;;;;13.90;3.50;;;14.70;99.90;;;;;;5037050;28;20054;-71
2022/05/13 04:29:07;;;;;;;15.70;4.13;;;14.70;99.90;;;;;;5019033;28;20050;-71
2022/05/13 04:31:35;;;;;;;17.05;3.90;;;14.70;99.90;;;;;;5019435;28;20052;-71
2022/05/13 04:34:01;;;;;;;18.73;4.18;;;14.80;99.90;;;;;;5035841;28;20053;-71
2022/05/13 04:36:27;;;;;;;16.73;4.70;;;14.80;99.90;;;;;;5035655;28;20068;-71
2022/05/13 04:38:54;;;;;;;13.50;3.50;;;14.80;99.90;;;;;;5035530;28;20054;-71
2022/05/13 04:44:06;;;;;;;18.13;4.20;;;14.70;99.90;;;;;;5035547;28;20103;-71
2022/05/13 04:46:32;;;;;;;18.77;4.28;;;14.80;99.90;;;;;;5035423;28;20085;-71
2022/05/13 04:48:58;;;;;;;16.17;4.07;;;14.80;99.90;;;;;;5035424;28;20124;-71
2022/05/13 04:51:25;;;;;;;17.55;4.00;;;14.80;99.90;;;;;;5035432;28;20129;-71
2022/05/13 04:53:53;;;;;;;19.65;4.07;;;14.70;99.90;;;;;;5017975;28;20053;-71
2022/05/13 04:56:20;;;;;;;16.77;4.38;;;14.60;99.90;;;;;;5035356;28;20144;-72
2022/05/13 04:58:46;;;;;;;16.58;4.85;;;14.60;99.90;;;;;;5034947;28;20430;-71
2022/05/13 05:01:13;;;;;;;17.70;4.00;;;14.60;99.90;;;;;;5035220;28;20104;-71
2022/05/13 05:03:40;;;;;;;18.98;3.80;;;14.60;99.90;;;;;;5035188;28;20081;-71
2022/05/13 05:06:06;;;;;;;11.57;3.70;;;14.50;99.90;;;;;;5035126;28;20050;-71
2022/05/13 05:08:32;;;;;;;17.83;3.90;;;14.40;99.90;;;;;;5034691;28;20061;-71
2022/05/13 05:10:59;;;;;;;12.95;4.07;;;14.30;99.90;;;;;;5034800;28;20053;-72
2022/05/13 05:13:30;;;;;;;15.73;3.42;;;14.40;99.90;;;;;;5035054;28;20050;-71
2022/05/13 05:15:56;;;;;;;18.83;4.20;;;14.40;99.90;;;;;;5017505;28;20396;-71
2022/05/13 05:18:23;;;;;;;23.13;4.28;;;14.40;99.90;;;;;;5033725;28;20060;-71
2022/05/13 05:20:49;;;;;;;14.95;3.22;;;14.60;99.90;;;;;;5017551;28;20373;-71
2022/05/13 05:23:27;;;;;;;13.85;3.50;;;14.60;99.90;;;;;;5034976;28;20391;-71
2022/05/13 05:25:53;;;;;;;11.68;3.45;;;14.50;99.90;;;;;;5034904;28;20042;-71
2022/05/13 05:28:19;;;;;;;14.07;3.40;;;14.40;99.90;;;;;;5017089;28;20124;-71
2022/05/13 05:30:45;;;;;;;23.83;4.78;;;14.40;99.90;;;;;;5034726;28;20049;-71
2022/05/13 05:33:12;;;;;;;15.93;3.80;;;14.50;99.90;;;;;;4997055;28;1109033;-71
2022/05/13 05:35:38;;;;;;;14.38;3.60;;;14.50;99.90;;;;;;5035778;28;20499;-71
2022/05/13 05:38:04;;;;;;;17.38;4.75;;;14.60;99.90;;;;;;5018207;28;20468;-70
2022/05/13 05:40:30;;;;;;;20.27;3.92;;;14.80;99.90;;;;;;5035600;28;20045;-71
2022/05/13 05:42:56;;;;;;;18.27;4.07;;;14.80;99.90;;;;;;5035650;28;20412;-71
2022/05/13 05:45:23;;;;;;;15.90;4.13;;;14.80;99.90;;;;;;5035652;28;20053;-71
2022/05/13 05:47:49;;;;;;;14.15;3.95;;;15.00;99.90;;;;;;5018158;28;20045;-70
2022/05/13 05:50:18;;;;;;;13.88;3.63;;;15.10;99.90;;;;;;5035505;28;20041;-71
2022/05/13 05:52:44;;;;;;;22.20;4.40;;;15.10;99.90;;;;;;5035388;28;20037;-71
2022/05/13 05:58:03;;;;;;;19.95;4.32;;;15.40;99.90;;;;;;5035078;28;20108;-71
2022/05/13 06:00:31;;;;;;;21.23;4.18;;;15.50;99.90;;;;;;5035494;28;20134;-71
2022/05/13 06:02:57;;;;;;;20.10;4.05;;;15.40;99.90;;;;;;5035023;28;20492;-71
2022/05/13 06:05:24;;;;;;;15.45;3.78;;;15.50;99.90;;;;;;5035170;28;20064;-71
2022/05/13 06:07:50;;;;;;;17.88;3.50;;;15.50;99.90;;;;;;5017918;28;20050;-71
2022/05/13 06:10:17;;;;;;;18.38;3.58;;;15.60;99.90;;;;;;5035318;28;20399;-71
2022/05/13 06:12:43;;;;;;;16.38;3.47;;;15.40;99.90;;;;;;5035066;28;20045;-71
2022/05/13 06:15:10;;;;;;;12.27;3.13;;;14.90;99.90;;;;;;5035222;28;20076;-70
2022/05/13 06:17:45;;;;;;;16.75;3.50;;;14.70;99.90;;;;;;5034972;28;20053;-71
2022/05/13 06:20:13;;;;;;;10.05;3.30;;;14.60;99.90;;;;;;5016511;28;20047;-71
2022/05/13 06:22:40;;;;;;;12.63;3.17;;;14.60;99.90;;;;;;5034868;28;20041;-70
2022/05/13 06:25:08;;;;;;;8.75;2.33;;;14.70;99.90;;;;;;5017409;28;20067;-71
2022/05/13 06:27:35;;;;;;;13.75;2.28;;;14.70;99.90;;;;;;5034399;28;20045;-70
2022/05/13 06:30:10;;;;;;;11.05;2.28;;;14.70;99.90;;;;;;5034874;28;20045;-70
2022/05/13 06:32:37;;;;;;;8.98;1.90;;;14.60;99.90;;;;;;5034381;28;20057;-71
2022/05/13 06:35:03;;;;;;;7.65;1.92;;;14.70;99.90;;;;;;5035012;28;20092;-71
2022/05/13 06:37:29;;;;;;;11.10;2.17;;;14.80;99.90;;;;;;5034561;28;20045;-71
2022/05/13 06:39:54;;;;;;;14.50;2.28;;;14.70;99.90;;;;;;5034477;28;20366;-70
2022/05/13 06:42:20;;;;;;;9.13;1.92;;;14.50;99.90;;;;;;5034518;28;20041;-70
2022/05/13 06:44:46;;;;;;;7.57;1.90;;;14.40;99.90;;;;;;5034487;28;20053;-71
2022/05/13 06:47:11;;;;;;;9.23;2.10;;;14.40;99.90;;;;;;5017028;28;20582;-71
2022/05/13 06:49:37;;;;;;;13.48;2.53;;;14.60;99.90;;;;;;5034371;28;20052;-71
2022/05/13 06:52:03;;;;;;;12.15;2.38;;;14.60;99.90;;;;;;5016612;28;20055;-71
2022/05/13 06:54:30;;;;;;;13.15;2.40;;;14.70;99.90;;;;;;5034443;28;20049;-71
2022/05/13 06:56:56;;;;;;;11.52;2.30;;;14.70;99.90;;;;;;5034228;28;20064;-70
2022/05/13 06:59:22;;;;;;;9.75;2.15;;;14.70;99.90;;;;;;5016435;28;20404;-71
2022/05/13 07:01:49;;;;;;;8.57;2.22;;;14.80;99.90;;;;;;5034166;28;20064;-71
2022/05/13 07:04:15;;;;;;;8.75;2.30;;;14.60;99.90;;;;;;5016931;28;20045;-71
2022/05/13 07:06:41;;;;;;;10.05;1.75;;;14.70;99.90;;;;;;5016706;28;20442;-71
2022/05/13 07:09:07;;;;;;;14.30;2.35;;;14.80;99.90;;;;;;5034048;28;20041;-71
2022/05/13 07:11:33;;;;;;;9.60;2.03;;;15.00;99.90;;;;;;5033993;28;20045;-71
2022/05/13 07:13:59;;;;;;;8.25;2.05;;;15.00;99.90;;;;;;5016596;28;20053;-71
2022/05/13 07:16:25;;;;;;;9.85;1.98;;;14.80;99.90;;;;;;5033948;28;20045;-71
2022/05/13 07:18:51;;;;;;;7.82;1.70;;;14.80;99.90;;;;;;5033861;28;20045;-71
2022/05/13 07:21:17;;;;;;;12.10;2.25;;;14.70;99.90;;;;;;5033899;28;20042;-71
2022/05/13 07:23:43;;;;;;;13.70;2.25;;;14.70;99.90;;;;;;5033869;28;20103;-71
2022/05/13 07:26:10;;;;;;;9.90;2.05;;;14.70;99.90;;;;;;5016579;28;20450;-71
2022/05/13 07:28:38;;;;;;;7.30;1.95;;;14.60;99.90;;;;;;5033475;28;20049;-71
2022/05/13 07:31:05;;;;;;;9.60;1.90;;;14.70;99.90;;;;;;5033503;28;20042;-71
2022/05/13 07:33:31;;;;;;;7.95;1.90;;;14.90;99.90;;;;;;5033071;28;20092;-71
2022/05/13 07:35:57;;;;;;;10.00;2.00;;;15.00;99.90;;;;;;5033547;28;20057;-72
2022/05/13 07:38:23;;;;;;;13.85;2.15;;;15.00;99.90;;;;;;5033457;28;20096;-71
2022/05/13 07:43:34;;;;;;;11.88;1.85;;;15.10;99.90;;;;;;5016122;28;20144;-71
2022/05/13 07:46:01;;;;;;;8.38;1.73;;;15.20;99.90;;;;;;5033554;28;20084;-71
2022/05/13 07:48:27;;;;;;;10.27;2.22;;;15.30;99.90;;;;;;5033627;28;20053;-71
2022/05/13 07:50:53;;;;;;;8.70;1.50;;;15.20;99.90;;;;;;5033592;28;20128;-71
2022/05/13 07:53:19;;;;;;;7.97;1.65;;;15.30;99.90;;;;;;5033542;28;20107;-71
2022/05/13 07:55:45;;;;;;;7.57;1.55;;;15.20;99.90;;;;;;5033503;28;20418;-71
2022/05/13 07:58:10;;;;;;;9.27;1.70;;;15.00;99.90;;;;;;5033262;28;20050;-71
2022/05/13 08:00:38;;;;;;;11.65;2.58;;;14.90;99.90;;;;;;5033336;28;20384;-70
2022/05/13 08:03:09;;;;;;;9.70;1.80;;;15.10;99.90;;;;;;5033392;28;20053;-72
2022/05/13 08:05:42;;;;;;;10.75;2.25;;;15.10;99.90;;;;;;5033413;28;20136;-71
2022/05/13 08:08:10;;;;;;;8.07;1.52;;;15.20;99.90;;;;;;5033588;28;20049;-72
2022/05/13 08:10:37;;;;;;;10.50;1.80;;;15.30;99.90;;;;;;5015709;28;20041;-71
2022/05/13 08:13:04;;;;;;;10.80;1.52;;;15.20;99.90;;;;;;5015886;28;20472;-71
2022/05/13 08:15:30;;;;;;;9.98;1.92;;;15.20;99.90;;;;;;5016484;28;20052;-72
2022/05/13 08:17:55;;;;;;;11.20;1.95;;;15.00;99.90;;;;;;5023602;28;20037;-72
2022/05/13 08:20:22;;;;;;;10.48;1.60;;;15.00;99.90;;;;;;5033191;28;20038;-71
2022/05/13 08:22:48;;;;;;;9.73;1.90;;;15.30;99.90;;;;;;5015914;28;20049;-72
2022/05/13 08:25:14;;;;;;;8.65;1.77;;;15.30;99.90;;;;;;5033250;28;20048;-71
2022/05/13 08:27:39;;;;;;;9.30;1.92;;;15.30;99.90;;;;;;5015587;28;20137;-71
2022/05/13 08:30:06;;;;;;;7.15;1.77;;;15.40;99.90;;;;;;5033214;28;20041;-71
2022/05/13 08:32:32;;;;;;;8.43;1.58;;;15.10;99.90;;;;;;5015363;28;20080;-71
2022/05/13 08:34:59;;;;;;;7.35;1.63;;;15.00;99.90;;;;;;5033389;28;20058;-71
2022/05/13 08:37:25;;;;;;;9.18;1.98;;;15.10;99.90;;;;;;5031959;28;20050;-72
2022/05/13 08:39:50;;;;;;;10.98;1.90;;;15.30;99.90;;;;;;5033043;28;20534;-71
2022/05/13 08:42:36;;;;;;;8.93;2.28;;;15.10;99.90;;;;;;5015910;28;20045;-71
2022/05/13 08:45:03;;;;;;;8.55;1.95;;;15.20;99.90;;;;;;5037116;28;20087;-71
2022/05/13 08:47:36;;;;;;;9.65;1.95;;;15.10;99.90;;;;;;5036720;28;20049;-71
2022/05/13 08:50:12;;;;;;;6.70;1.52;;;15.00;99.90;;;;;;5036880;28;20392;-72
2022/05/13 08:53:06;;;;;;;7.03;1.30;;;15.10;99.90;;;;;;5019195;28;20056;-71
2022/05/13 08:55:37;;;;;;;9.45;1.48;;;15.10;99.90;;;;;;5019268;28;20137;-71
2022/05/13 08:58:11;;;;;;;11.43;1.75;;;15.30;99.90;;;;;;5019000;28;20054;-71
2022/05/13 09:00:42;;;;;;;10.77;1.65;;;15.30;99.90;;;;;;5018795;28;20361;-71
2022/05/13 09:03:34;;;;;;;5.32;2.35;;;15.30;99.90;;;;;;5036655;28;20400;-70
2022/05/13 09:06:39;;;;;;;7.55;1.10;;;15.40;99.90;;;;;;5034176;28;20055;-70
2022/05/13 09:09:09;;;;;;;7.75;1.48;;;15.60;99.90;;;;;;5036692;28;20041;-70
2022/05/13 09:11:56;;;;;;;6.15;1.33;;;15.50;99.90;;;;;;5036582;28;20048;-70
2022/05/13 09:14:31;;;;;;;8.90;1.42;;;15.90;99.90;;;;;;5036275;28;20053;-70
2022/05/13 09:17:02;;;;;;;6.07;1.08;;;15.90;99.90;;;;;;5036213;28;20056;-70
2022/05/13 09:19:37;;;;;;;5.72;0.95;;;15.90;99.90;;;;;;5036135;28;20060;-70
2022/05/13 09:22:06;;;;;;;5.50;1.30;;;16.10;99.90;;;;;;5036194;28;20045;-71
2022/05/13 09:24:32;;;;;;;9.02;1.45;;;16.60;99.90;;;;;;5018821;28;20917;-86
2022/05/13 09:26:58;;;;;;;8.63;1.80;;;16.60;99.90;;;;;;5019363;28;20081;-82
2022/05/13 09:29:24;;;;;;;5.28;1.10;;;16.50;99.90;;;;;;5017995;28;20053;-71
2022/05/13 09:31:59;;;;;;;5.03;1.23;;;16.50;99.90;;;;;;5035952;28;20124;-71
2022/05/13 09:34:25;;;;;;;5.43;1.20;;;16.50;99.90;;;;;;5035556;28;20061;-91
2022/05/13 09:36:51;;;;;;;5.53;1.30;;;16.50;99.90;;;;;;5018399;28;20057;-70
2022/05/13 09:39:24;;;;;;;6.88;0.90;;;16.20;99.90;;;;;;5018128;28;20085;-84
2022/05/13 09:41:52;;;;;;;6.78;1.08;;;15.90;99.90;;;;;;5018614;28;20409;-71
2022/05/13 09:44:23;;;;;;;6.38;1.00;;;15.90;99.90;;;;;;5035615;28;20067;-73
2022/05/13 09:47:11;;;;;;;11.23;1.20;;;16.10;99.90;;;;;;5035655;28;20085;-71
2022/05/13 09:49:41;;;;;;;8.88;1.20;;;16.30;99.90;;;;;;5035704;28;20121;-72
2022/05/13 09:52:25;;;;;;;4.95;1.08;;;16.30;99.90;;;;;;5035601;28;20049;-85
2022/05/13 09:54:52;;;;;;;13.60;1.20;;;16.20;99.90;;;;;;5000560;28;20046;-85
2022/05/13 09:57:33;;;;;;;10.50;1.50;;;15.90;99.90;;;;;;5018132;28;20476;-71
2022/05/13 10:00:04;;;;;;;7.30;1.02;;;15.90;99.90;;;;;;5035037;28;20041;-71
2022/05/13 10:02:36;;;;;;;6.63;1.10;;;15.90;99.90;;;;;;5035303;28;20207;-72
2022/05/13 10:05:24;;;;;;;5.55;0.95;;;15.90;99.90;;;;;;5017757;28;20077;-73
2022/05/13 10:07:53;;;;;;;11.27;1.20;;;15.80;99.90;;;;;;5035175;28;20396;-70
2022/05/13 10:13:59;;;;;;;4.32;1.10;;;16.00;99.90;;;;;;5035112;28;20053;-71
2022/05/13 10:16:32;;;;;;;6.50;1.48;;;16.20;99.90;;;;;;5017638;28;20053;-71
2022/05/13 10:19:40;;;;;;;4.18;1.27;;;16.40;99.90;;;;;;5017583;28;20491;-71
2022/05/13 10:22:30;;;;;;;8.65;1.50;;;16.90;99.90;;;;;;4993179;28;20402;-71
2022/05/13 10:25:17;;;;;;;8.63;1.38;;;17.20;99.90;;;;;;5035199;28;20049;-71
2022/05/13 10:27:50;;;;;;;8.23;1.83;;;17.70;99.90;;;;;;5034514;28;20045;-73
2022/05/13 10:30:31;;;;;;;7.88;1.50;;;18.00;99.90;;;;;;5017230;28;20052;-72
2022/05/13 10:33:08;;;;;;;5.63;1.27;;;18.00;99.50;;;;;;5034343;28;20530;-72
2022/05/13 10:36:01;;;;;;;7.50;1.23;;;17.80;99.40;;;;;;5034957;28;20137;-86
2022/05/13 10:38:39;;;;;;;8.27;1.50;;;17.20;99.60;;;;;;5017300;28;20057;-75
2022/05/13 10:41:43;;;;;;;6.82;1.45;;;17.20;99.70;;;;;;5017651;28;20042;-83
2022/05/13 10:44:19;;;;;;;9.93;1.70;;;16.70;99.70;;;;;;4992754;28;20136;-69
2022/05/13 10:46:52;;;;;;;8.45;1.73;;;16.60;99.90;;;;;;5029508;28;20080;-74
2022/05/13 10:49:19;;;;;;;6.70;1.50;;;16.20;99.80;;;;;;5034522;28;20060;-72
2022/05/13 10:52:12;;;;;;;4.88;1.40;;;16.20;99.90;;;;;;5034392;28;20056;-73
2022/05/13 10:54:58;;;;;;;8.20;1.58;;;16.50;99.90;;;;;;5017124;28;20091;-73
2022/05/13 10:57:49;;;;;;;10.70;1.85;;;16.60;99.90;;;;;;5034352;28;20049;-73
2022/05/13 11:00:28;;;;;;;8.63;1.95;;;16.60;99.90;;;;;;5016942;28;20392;-76
2022/05/13 11:03:27;;;;;;;8.40;1.52;;;17.00;99.90;;;;;;5016539;28;20049;-71
2022/05/13 11:06:01;;;;;;;8.18;1.88;;;16.90;99.90;;;;;;5033878;28;20091;-71
2022/05/13 11:08:57;;;;;;;11.15;1.67;;;16.80;99.90;;;;;;5034192;28;20052;-71
2022/05/13 11:11:44;;;;;;;10.37;1.60;;;16.60;99.90;;;;;;5016900;28;20053;-71
2022/05/13 11:14:15;;;;;;;;;;;16.50;99.90;;;;;;5034574;28;20076;-71
2022/05/13 11:17:02;;;;;;;9.93;2.03;;;16.60;99.60;;;;;;5034006;28;19928;-71
2022/05/13 11:19:37;;;;;;;4.35;1.00;;;16.60;99.40;;;;;;5034243;28;20042;-72
2022/05/13 11:22:03;;;;;;;9.27;1.60;;;16.60;99.70;;;;;;5034334;28;20054;-70
2022/05/13 11:27:37;;;;;;;4.90;1.23;;;16.10;99.60;;;;;;5016783;28;20131;-73
2022/05/13 11:30:27;;;;;;;4.13;1.10;;;16.20;99.80;;;;;;5016180;28;20167;-73
2022/05/13 11:33:03;;;;;;;10.65;1.30;;;16.30;99.70;;;;;;5028117;28;20114;-73
2022/05/13 11:35:39;;;;;;;4.10;0.80;;;16.40;99.60;;;;;;5032810;28;20061;-73
2022/05/13 11:38:18;;;;;;;7.38;1.08;;;16.40;99.60;;;;;;5016316;28;20053;-77
2022/05/13 11:41:11;;;;;;;5.32;1.00;;;16.40;99.60;;;;;;5016195;28;20045;-83
2022/05/13 11:43:52;;;;;;;5.95;1.10;;;16.30;99.60;;;;;;5033802;28;20052;-74
2022/05/13 11:46:45;;;;;;;5.38;0.95;;;16.50;99.40;;;;;;5033714;28;20045;-73
2022/05/13 11:49:19;;;;;;;6.22;1.40;;;16.60;99.70;;;;;;5016440;28;20061;-73
2022/05/13 11:51:45;;;;;;;4.10;0.90;;;16.70;99.40;;;;;;5033622;28;20053;-73
2022/05/13 11:54:17;;;;;;;9.15;1.10;;;16.80;99.30;;;;;;5016705;28;20132;-72
2022/05/13 11:56:46;;;;;;;8.43;1.15;;;16.80;99.00;;;;;;5035827;28;20060;-73
2022/05/13 11:59:27;;;;;;;3.72;0.98;;;16.70;99.10;;;;;;5016068;28;20050;-73
2022/05/13 12:01:58;;;;;;;4.40;1.00;;;17.00;99.10;;;;;;5033521;28;20057;-75
2022/05/13 12:04:29;;;;;;;6.30;0.80;;;17.50;99.20;;;;;;5016354;28;20061;-81
2022/05/13 12:06:57;;;;;;;5.82;1.20;;;17.70;98.40;;;;;;5016261;28;20135;-73
2022/05/13 12:09:39;;;;;;;4.43;1.15;;;17.60;98.50;;;;;;5033400;28;20045;-73
2022/05/13 12:12:14;;;;;;;2.95;0.73;;;17.70;98.70;;;;;;5033377;28;20045;-74
2022/05/13 12:14:55;;;;;;;41.58;4.35;;;18.10;98.90;;;;;;5016666;28;20092;-79
2022/05/13 12:17:41;;;;;;;14.25;1.20;;;18.20;99.20;;;;;;5016580;28;20057;-73
2022/05/13 12:20:29;;;;;;;7.05;0.93;;;18.20;98.30;;;;;;5037269;28;20084;-74
2022/05/13 12:23:08;;;;;;;2.72;0.88;;;18.10;98.60;;;;;;5037231;28;20049;-74
2022/05/13 12:25:34;;;;;;;5.03;1.13;;;18.00;98.30;;;;;;5019566;28;20046;-88
2022/05/13 12:28:20;;;;;;;10.18;1.60;;;17.60;98.30;;;;;;5019726;28;20533;-73
2022/05/13 12:30:48;;;;;;;3.63;0.90;;;17.70;98.60;;;;;;5029431;28;20080;-73
2022/05/13 12:33:20;;;;;;;8.07;1.15;;;17.70;98.80;;;;;;5018953;28;20951;-74
2022/05/13 12:39:12;;;;;;;5.20;1.17;;;17.60;98.50;;;;;;5037137;28;20052;-73
2022/05/13 12:41:43;;;;;;;5.75;1.30;;;17.90;98.50;;;;;;5019641;28;20132;-73
2022/05/13 12:44:13;;;;;;;10.35;1.25;;;18.20;99.10;;;;;;5036883;28;20045;-72
2022/05/13 12:46:46;;;;;;;4.35;1.02;;;18.20;98.30;;;;;;5036440;28;20511;-72
2022/05/13 12:49:25;;;;;;;5.70;1.02;;;18.00;98.50;;;;;;5019245;28;20503;-72
2022/05/13 12:52:08;;;;;;;9.75;1.35;;;17.90;98.30;;;;;;5036859;28;20132;-82
2022/05/13 12:54:42;;;;;;;4.88;1.20;;;17.50;98.50;;;;;;5019823;28;20049;-75
2022/05/13 12:57:14;;;;;;;10.35;1.45;;;17.10;98.90;;;;;;5019260;28;20120;-73
2022/05/13 12:59:44;;;;;;;7.55;1.60;;;17.30;99.00;;;;;;5018794;28;20054;-71
2022/05/13 13:02:11;;;;;;;11.98;1.70;;;17.70;99.10;;;;;;5036494;28;20053;-71
2022/05/13 13:04:50;;;;;;;6.97;1.70;;;18.10;99.00;;;;;;5036394;28;20049;-72
2022/05/13 13:07:20;;;;;;;7.70;1.65;;;18.30;98.90;;;;;;5019529;28;20050;-72
2022/05/13 13:09:51;;;;;;;9.32;1.95;;;18.40;98.90;;;;;;5035378;28;20085;-72
2022/05/13 13:12:49;;;;;;;10.27;1.92;;;18.50;98.80;;;;;;5018543;28;20076;-72
2022/05/13 13:15:21;;;;;;;12.00;1.95;;;18.10;98.70;;;;;;5026168;28;20053;-72
2022/05/13 13:17:59;;;;;;;10.68;2.05;;;18.20;98.80;;;;;;5034840;28;20103;-73
2022/05/13 13:20:29;;;;;;;12.23;1.50;;;18.00;98.70;;;;;;5035119;28;20045;-72
2022/05/13 13:23:05;;;;;;;6.65;1.33;;;18.20;99.30;;;;;;5018549;28;20046;-73
2022/05/13 13:25:41;;;;;;;7.60;1.58;;;18.60;99.10;;;;;;5034914;28;20042;-73
2022/05/13 13:28:10;;;;;;;11.00;1.35;;;18.70;98.50;;;;;;5035141;28;20045;-72